sensor_id;sensor_type;location;lat;lon;timestamp;P1;durP1;ratioP1;P2;durP2;ratioP2
56477;SDS011;42382;53.210;5.772;2022-10-31T00:00:59;11.90;;;7.85;;
56477;SDS011;42382;53.210;5.772;2022-10-31T00:03:24;13.90;;;7.70;;
56477;SDS011;42382;53.210;5.772;2022-10-31T00:05:51;19.15;;;7.43;;
56477;SDS011;42382;53.210;5.772;2022-10-31T00:08:17;13.57;;;8.20;;
56477;SDS011;42382;53.210;5.772;2022-10-31T00:10:43;12.30;;;7.45;;
56477;SDS011;42382;53.210;5.772;2022-10-31T00:13:10;16.20;;;7.28;;
56477;SDS011;42382;53.210;5.772;2022-10-31T00:15:37;12.05;;;6.93;;
56477;SDS011;42382;53.210;5.772;2022-10-31T00:18:04;16.90;;;8.15;;
56477;SDS011;42382;53.210;5.772;2022-10-31T00:20:30;12.88;;;7.68;;
56477;SDS011;42382;53.210;5.772;2022-10-31T00:23:00;14.88;;;6.90;;
56477;SDS011;42382;53.210;5.772;2022-10-31T00:25:27;13.65;;;8.63;;
56477;SDS011;42382;53.210;5.772;2022-10-31T00:27:54;21.10;;;9.35;;
56477;SDS011;42382;53.210;5.772;2022-10-31T00:30:20;17.75;;;8.05;;
56477;SDS011;42382;53.210;5.772;2022-10-31T00:32:46;19.00;;;9.05;;
56477;SDS011;42382;53.210;5.772;2022-10-31T00:35:11;19.27;;;9.00;;
56477;SDS011;42382;53.210;5.772;2022-10-31T00:37:37;17.63;;;9.70;;
56477;SDS011;42382;53.210;5.772;2022-10-31T00:40:02;16.02;;;7.47;;
56477;SDS011;42382;53.210;5.772;2022-10-31T00:42:28;14.68;;;8.70;;
56477;SDS011;42382;53.210;5.772;2022-10-31T00:44:54;17.17;;;9.10;;
56477;SDS011;42382;53.210;5.772;2022-10-31T00:47:19;17.88;;;9.15;;
56477;SDS011;42382;53.210;5.772;2022-10-31T00:49:45;16.20;;;7.72;;
56477;SDS011;42382;53.210;5.772;2022-10-31T00:52:10;17.88;;;8.43;;
56477;SDS011;42382;53.210;5.772;2022-10-31T00:54:36;12.52;;;7.88;;
56477;SDS011;42382;53.210;5.772;2022-10-31T00:57:01;16.10;;;7.93;;
56477;SDS011;42382;53.210;5.772;2022-10-31T00:59:27;15.48;;;9.07;;
56477;SDS011;42382;53.210;5.772;2022-10-31T01:01:53;18.23;;;8.27;;
56477;SDS011;42382;53.210;5.772;2022-10-31T01:04:19;15.55;;;8.02;;
56477;SDS011;42382;53.210;5.772;2022-10-31T01:06:45;13.32;;;7.40;;
56477;SDS011;42382;53.210;5.772;2022-10-31T01:09:10;12.90;;;7.78;;
56477;SDS011;42382;53.210;5.772;2022-10-31T01:11:36;14.40;;;7.93;;
56477;SDS011;42382;53.210;5.772;2022-10-31T01:14:01;13.57;;;7.80;;
56477;SDS011;42382;53.210;5.772;2022-10-31T01:16:27;16.33;;;8.38;;
56477;SDS011;42382;53.210;5.772;2022-10-31T01:18:54;18.58;;;7.32;;
56477;SDS011;42382;53.210;5.772;2022-10-31T01:21:21;16.92;;;7.95;;
56477;SDS011;42382;53.210;5.772;2022-10-31T01:23:48;15.18;;;8.02;;
56477;SDS011;42382;53.210;5.772;2022-10-31T01:26:18;16.98;;;8.73;;
56477;SDS011;42382;53.210;5.772;2022-10-31T01:28:49;15.60;;;8.68;;
56477;SDS011;42382;53.210;5.772;2022-10-31T01:31:18;17.38;;;10.18;;
56477;SDS011;42382;53.210;5.772;2022-10-31T01:33:45;16.83;;;10.15;;
56477;SDS011;42382;53.210;5.772;2022-10-31T01:36:25;20.85;;;10.95;;
56477;SDS011;42382;53.210;5.772;2022-10-31T01:39:03;17.42;;;11.25;;
56477;SDS011;42382;53.210;5.772;2022-10-31T01:41:31;18.88;;;10.75;;
56477;SDS011;42382;53.210;5.772;2022-10-31T01:44:00;22.42;;;12.15;;
56477;SDS011;42382;53.210;5.772;2022-10-31T01:46:36;27.45;;;14.00;;
56477;SDS011;42382;53.210;5.772;2022-10-31T01:49:05;23.52;;;13.25;;
56477;SDS011;42382;53.210;5.772;2022-10-31T01:51:40;22.33;;;13.80;;
56477;SDS011;42382;53.210;5.772;2022-10-31T01:54:13;20.50;;;12.15;;
56477;SDS011;42382;53.210;5.772;2022-10-31T01:56:42;20.15;;;12.88;;
56477;SDS011;42382;53.210;5.772;2022-10-31T01:59:13;16.73;;;12.40;;
56477;SDS011;42382;53.210;5.772;2022-10-31T02:01:44;22.98;;;13.00;;
56477;SDS011;42382;53.210;5.772;2022-10-31T02:04:10;21.60;;;12.23;;
56477;SDS011;42382;53.210;5.772;2022-10-31T02:06:41;24.50;;;13.77;;
56477;SDS011;42382;53.210;5.772;2022-10-31T02:09:13;25.45;;;13.98;;
56477;SDS011;42382;53.210;5.772;2022-10-31T02:11:40;24.33;;;13.40;;
56477;SDS011;42382;53.210;5.772;2022-10-31T02:14:07;21.98;;;12.90;;
56477;SDS011;42382;53.210;5.772;2022-10-31T02:16:33;20.23;;;13.55;;
56477;SDS011;42382;53.210;5.772;2022-10-31T02:18:58;18.15;;;12.35;;
56477;SDS011;42382;53.210;5.772;2022-10-31T02:32:25;24.40;;;14.35;;
56477;SDS011;42382;53.210;5.772;2022-10-31T02:34:54;25.58;;;13.68;;
56477;SDS011;42382;53.210;5.772;2022-10-31T02:37:25;21.90;;;13.35;;
56477;SDS011;42382;53.210;5.772;2022-10-31T02:40:02;26.90;;;15.35;;
56477;SDS011;42382;53.210;5.772;2022-10-31T02:42:38;22.13;;;14.40;;
56477;SDS011;42382;53.210;5.772;2022-10-31T02:45:25;23.05;;;13.13;;
56477;SDS011;42382;53.210;5.772;2022-10-31T02:48:18;24.75;;;13.75;;
56477;SDS011;42382;53.210;5.772;2022-10-31T02:50:48;19.40;;;13.13;;
56477;SDS011;42382;53.210;5.772;2022-10-31T02:53:19;20.80;;;13.10;;
56477;SDS011;42382;53.210;5.772;2022-10-31T02:55:47;26.52;;;16.33;;
56477;SDS011;42382;53.210;5.772;2022-10-31T02:58:25;25.75;;;13.40;;
56477;SDS011;42382;53.210;5.772;2022-10-31T03:01:03;25.20;;;13.65;;
56477;SDS011;42382;53.210;5.772;2022-10-31T03:03:57;21.33;;;13.18;;
56477;SDS011;42382;53.210;5.772;2022-10-31T03:18:09;19.60;;;13.63;;
56477;SDS011;42382;53.210;5.772;2022-10-31T03:20:54;26.35;;;14.23;;
56477;SDS011;42382;53.210;5.772;2022-10-31T03:23:24;18.23;;;11.90;;
56477;SDS011;42382;53.210;5.772;2022-10-31T03:25:51;19.30;;;12.55;;
56477;SDS011;42382;53.210;5.772;2022-10-31T03:28:21;17.88;;;12.05;;
56477;SDS011;42382;53.210;5.772;2022-10-31T03:30:50;21.08;;;12.10;;
56477;SDS011;42382;53.210;5.772;2022-10-31T03:33:18;19.17;;;12.00;;
56477;SDS011;42382;53.210;5.772;2022-10-31T03:35:51;19.90;;;11.68;;
56477;SDS011;42382;53.210;5.772;2022-10-31T03:38:21;20.17;;;12.25;;
56477;SDS011;42382;53.210;5.772;2022-10-31T03:40:47;20.85;;;12.75;;
56477;SDS011;42382;53.210;5.772;2022-10-31T03:43:17;18.48;;;12.07;;
56477;SDS011;42382;53.210;5.772;2022-10-31T03:45:49;20.17;;;11.35;;
56477;SDS011;42382;53.210;5.772;2022-10-31T03:48:15;17.13;;;11.30;;
56477;SDS011;42382;53.210;5.772;2022-10-31T03:51:04;16.38;;;11.30;;
56477;SDS011;42382;53.210;5.772;2022-10-31T03:53:54;17.55;;;11.40;;
56477;SDS011;42382;53.210;5.772;2022-10-31T03:56:32;16.13;;;11.32;;
56477;SDS011;42382;53.210;5.772;2022-10-31T03:59:07;17.10;;;11.18;;
56477;SDS011;42382;53.210;5.772;2022-10-31T04:01:47;21.98;;;12.02;;
56477;SDS011;42382;53.210;5.772;2022-10-31T04:04:15;19.70;;;11.93;;
56477;SDS011;42382;53.210;5.772;2022-10-31T04:06:42;19.23;;;11.48;;
56477;SDS011;42382;53.210;5.772;2022-10-31T04:09:10;21.30;;;12.35;;
56477;SDS011;42382;53.210;5.772;2022-10-31T04:11:40;19.27;;;11.57;;
56477;SDS011;42382;53.210;5.772;2022-10-31T04:14:09;16.75;;;12.10;;
56477;SDS011;42382;53.210;5.772;2022-10-31T04:16:38;17.58;;;11.13;;
56477;SDS011;42382;53.210;5.772;2022-10-31T04:19:06;21.83;;;12.13;;
56477;SDS011;42382;53.210;5.772;2022-10-31T04:21:31;20.20;;;11.63;;
56477;SDS011;42382;53.210;5.772;2022-10-31T04:23:57;16.25;;;11.15;;
56477;SDS011;42382;53.210;5.772;2022-10-31T04:26:23;20.42;;;12.02;;
56477;SDS011;42382;53.210;5.772;2022-10-31T04:28:49;21.98;;;12.90;;
56477;SDS011;42382;53.210;5.772;2022-10-31T04:31:14;20.15;;;12.43;;
56477;SDS011;42382;53.210;5.772;2022-10-31T04:33:40;22.15;;;13.45;;
56477;SDS011;42382;53.210;5.772;2022-10-31T04:36:06;19.88;;;11.98;;
56477;SDS011;42382;53.210;5.772;2022-10-31T04:38:32;20.25;;;12.63;;
56477;SDS011;42382;53.210;5.772;2022-10-31T04:40:58;19.58;;;12.45;;
56477;SDS011;42382;53.210;5.772;2022-10-31T04:43:24;20.00;;;13.02;;
56477;SDS011;42382;53.210;5.772;2022-10-31T04:45:50;19.63;;;11.27;;
56477;SDS011;42382;53.210;5.772;2022-10-31T04:48:15;20.75;;;13.50;;
56477;SDS011;42382;53.210;5.772;2022-10-31T04:50:41;21.88;;;13.88;;
56477;SDS011;42382;53.210;5.772;2022-10-31T04:53:07;21.58;;;13.07;;
56477;SDS011;42382;53.210;5.772;2022-10-31T04:55:33;19.55;;;12.88;;
56477;SDS011;42382;53.210;5.772;2022-10-31T04:58:00;20.65;;;13.02;;
56477;SDS011;42382;53.210;5.772;2022-10-31T05:00:26;17.25;;;12.52;;
56477;SDS011;42382;53.210;5.772;2022-10-31T05:02:52;19.08;;;12.45;;
56477;SDS011;42382;53.210;5.772;2022-10-31T05:05:20;23.05;;;13.23;;
56477;SDS011;42382;53.210;5.772;2022-10-31T05:07:51;21.00;;;12.45;;
56477;SDS011;42382;53.210;5.772;2022-10-31T05:10:18;21.02;;;12.90;;
56477;SDS011;42382;53.210;5.772;2022-10-31T05:12:47;22.50;;;13.85;;
56477;SDS011;42382;53.210;5.772;2022-10-31T05:15:14;19.38;;;13.38;;
56477;SDS011;42382;53.210;5.772;2022-10-31T05:17:41;21.27;;;14.45;;
56477;SDS011;42382;53.210;5.772;2022-10-31T05:20:07;19.55;;;13.57;;
56477;SDS011;42382;53.210;5.772;2022-10-31T05:22:33;17.08;;;12.13;;
56477;SDS011;42382;53.210;5.772;2022-10-31T05:24:59;21.25;;;13.02;;
56477;SDS011;42382;53.210;5.772;2022-10-31T05:27:24;17.00;;;11.98;;
56477;SDS011;42382;53.210;5.772;2022-10-31T05:29:50;21.33;;;13.88;;
56477;SDS011;42382;53.210;5.772;2022-10-31T05:32:15;20.75;;;12.68;;
56477;SDS011;42382;53.210;5.772;2022-10-31T05:34:41;20.48;;;13.77;;
56477;SDS011;42382;53.210;5.772;2022-10-31T05:37:06;20.70;;;13.55;;
56477;SDS011;42382;53.210;5.772;2022-10-31T05:39:32;20.50;;;13.63;;
56477;SDS011;42382;53.210;5.772;2022-10-31T05:41:57;18.60;;;13.02;;
56477;SDS011;42382;53.210;5.772;2022-10-31T05:44:23;18.10;;;13.15;;
56477;SDS011;42382;53.210;5.772;2022-10-31T05:46:48;25.38;;;13.85;;
56477;SDS011;42382;53.210;5.772;2022-10-31T05:49:14;18.83;;;12.68;;
56477;SDS011;42382;53.210;5.772;2022-10-31T05:51:40;21.52;;;12.88;;
56477;SDS011;42382;53.210;5.772;2022-10-31T05:54:05;21.13;;;14.25;;
56477;SDS011;42382;53.210;5.772;2022-10-31T05:56:31;18.85;;;13.30;;
56477;SDS011;42382;53.210;5.772;2022-10-31T05:58:56;27.02;;;14.27;;
56477;SDS011;42382;53.210;5.772;2022-10-31T06:01:22;21.15;;;12.88;;
56477;SDS011;42382;53.210;5.772;2022-10-31T06:03:47;20.63;;;13.35;;
56477;SDS011;42382;53.210;5.772;2022-10-31T06:06:13;25.15;;;15.02;;
56477;SDS011;42382;53.210;5.772;2022-10-31T06:08:39;19.95;;;13.85;;
56477;SDS011;42382;53.210;5.772;2022-10-31T06:11:05;23.88;;;13.57;;
56477;SDS011;42382;53.210;5.772;2022-10-31T06:13:30;20.42;;;13.43;;
56477;SDS011;42382;53.210;5.772;2022-10-31T06:15:56;23.75;;;15.35;;
56477;SDS011;42382;53.210;5.772;2022-10-31T06:18:22;23.50;;;14.70;;
56477;SDS011;42382;53.210;5.772;2022-10-31T06:20:47;24.55;;;15.25;;
56477;SDS011;42382;53.210;5.772;2022-10-31T06:23:13;25.08;;;15.50;;
56477;SDS011;42382;53.210;5.772;2022-10-31T06:25:39;24.13;;;16.33;;
56477;SDS011;42382;53.210;5.772;2022-10-31T06:28:04;26.52;;;16.20;;
56477;SDS011;42382;53.210;5.772;2022-10-31T06:30:30;22.58;;;15.70;;
56477;SDS011;42382;53.210;5.772;2022-10-31T06:33:05;24.90;;;16.58;;
56477;SDS011;42382;53.210;5.772;2022-10-31T06:35:31;28.77;;;17.83;;
56477;SDS011;42382;53.210;5.772;2022-10-31T06:37:57;28.50;;;17.33;;
56477;SDS011;42382;53.210;5.772;2022-10-31T06:40:22;29.80;;;17.13;;
56477;SDS011;42382;53.210;5.772;2022-10-31T06:42:55;25.17;;;17.92;;
56477;SDS011;42382;53.210;5.772;2022-10-31T06:45:22;26.75;;;16.70;;
56477;SDS011;42382;53.210;5.772;2022-10-31T06:47:54;23.90;;;16.40;;
56477;SDS011;42382;53.210;5.772;2022-10-31T06:50:21;22.20;;;16.15;;
56477;SDS011;42382;53.210;5.772;2022-10-31T06:52:54;24.33;;;16.02;;
56477;SDS011;42382;53.210;5.772;2022-10-31T06:55:21;24.48;;;17.23;;
56477;SDS011;42382;53.210;5.772;2022-10-31T06:57:58;25.05;;;17.58;;
56477;SDS011;42382;53.210;5.772;2022-10-31T07:00:26;22.65;;;15.73;;
56477;SDS011;42382;53.210;5.772;2022-10-31T07:02:53;30.05;;;17.05;;
56477;SDS011;42382;53.210;5.772;2022-10-31T07:05:19;21.60;;;15.55;;
56477;SDS011;42382;53.210;5.772;2022-10-31T07:07:45;22.20;;;15.90;;
56477;SDS011;42382;53.210;5.772;2022-10-31T07:10:10;24.02;;;15.48;;
56477;SDS011;42382;53.210;5.772;2022-10-31T07:12:36;26.08;;;17.02;;
56477;SDS011;42382;53.210;5.772;2022-10-31T07:15:01;23.52;;;15.73;;
56477;SDS011;42382;53.210;5.772;2022-10-31T07:17:27;23.48;;;15.52;;
56477;SDS011;42382;53.210;5.772;2022-10-31T07:19:53;21.33;;;15.43;;
56477;SDS011;42382;53.210;5.772;2022-10-31T07:22:18;20.95;;;16.05;;
56477;SDS011;42382;53.210;5.772;2022-10-31T07:24:44;27.58;;;16.73;;
56477;SDS011;42382;53.210;5.772;2022-10-31T07:27:09;24.50;;;16.77;;
56477;SDS011;42382;53.210;5.772;2022-10-31T07:29:35;19.35;;;14.25;;
56477;SDS011;42382;53.210;5.772;2022-10-31T07:32:00;25.73;;;17.13;;
56477;SDS011;42382;53.210;5.772;2022-10-31T07:34:26;24.00;;;16.27;;
56477;SDS011;42382;53.210;5.772;2022-10-31T07:36:52;22.17;;;15.68;;
56477;SDS011;42382;53.210;5.772;2022-10-31T07:39:17;23.15;;;16.17;;
56477;SDS011;42382;53.210;5.772;2022-10-31T07:41:43;24.90;;;15.50;;
56477;SDS011;42382;53.210;5.772;2022-10-31T07:44:08;23.98;;;16.67;;
56477;SDS011;42382;53.210;5.772;2022-10-31T07:46:34;20.60;;;15.43;;
56477;SDS011;42382;53.210;5.772;2022-10-31T07:48:59;22.65;;;15.52;;
56477;SDS011;42382;53.210;5.772;2022-10-31T07:51:25;24.38;;;15.68;;
56477;SDS011;42382;53.210;5.772;2022-10-31T07:53:51;25.90;;;16.55;;
56477;SDS011;42382;53.210;5.772;2022-10-31T07:56:17;26.50;;;16.77;;
56477;SDS011;42382;53.210;5.772;2022-10-31T07:58:42;26.65;;;16.55;;
56477;SDS011;42382;53.210;5.772;2022-10-31T08:01:08;26.00;;;16.23;;
56477;SDS011;42382;53.210;5.772;2022-10-31T08:03:34;24.83;;;17.38;;
56477;SDS011;42382;53.210;5.772;2022-10-31T08:05:59;24.02;;;16.52;;
56477;SDS011;42382;53.210;5.772;2022-10-31T08:08:25;24.25;;;16.05;;
56477;SDS011;42382;53.210;5.772;2022-10-31T08:10:53;23.48;;;16.08;;
56477;SDS011;42382;53.210;5.772;2022-10-31T08:13:19;26.52;;;16.95;;
56477;SDS011;42382;53.210;5.772;2022-10-31T08:15:45;23.27;;;16.00;;
56477;SDS011;42382;53.210;5.772;2022-10-31T08:18:15;27.27;;;16.40;;
56477;SDS011;42382;53.210;5.772;2022-10-31T08:20:41;26.00;;;16.02;;
56477;SDS011;42382;53.210;5.772;2022-10-31T08:23:08;21.80;;;15.65;;
56477;SDS011;42382;53.210;5.772;2022-10-31T08:25:35;27.23;;;16.77;;
56477;SDS011;42382;53.210;5.772;2022-10-31T08:28:01;23.80;;;15.68;;
56477;SDS011;42382;53.210;5.772;2022-10-31T08:30:28;23.60;;;15.82;;
56477;SDS011;42382;53.210;5.772;2022-10-31T08:32:59;22.48;;;16.05;;
56477;SDS011;42382;53.210;5.772;2022-10-31T08:35:30;22.80;;;14.90;;
56477;SDS011;42382;53.210;5.772;2022-10-31T08:37:56;21.52;;;13.13;;
56477;SDS011;42382;53.210;5.772;2022-10-31T08:40:23;21.88;;;14.65;;
56477;SDS011;42382;53.210;5.772;2022-10-31T08:43:11;20.63;;;14.93;;
56477;SDS011;42382;53.210;5.772;2022-10-31T08:45:38;22.38;;;14.43;;
56477;SDS011;42382;53.210;5.772;2022-10-31T08:48:05;21.10;;;13.40;;
56477;SDS011;42382;53.210;5.772;2022-10-31T08:50:34;21.25;;;15.25;;
56477;SDS011;42382;53.210;5.772;2022-10-31T08:53:01;23.55;;;15.02;;
56477;SDS011;42382;53.210;5.772;2022-10-31T08:55:28;19.52;;;13.27;;
56477;SDS011;42382;53.210;5.772;2022-10-31T08:57:54;19.08;;;12.63;;
56477;SDS011;42382;53.210;5.772;2022-10-31T09:00:21;15.80;;;11.13;;
56477;SDS011;42382;53.210;5.772;2022-10-31T09:02:47;13.18;;;10.48;;
56477;SDS011;42382;53.210;5.772;2022-10-31T09:05:12;13.40;;;9.93;;
56477;SDS011;42382;53.210;5.772;2022-10-31T09:07:38;13.43;;;9.98;;
56477;SDS011;42382;53.210;5.772;2022-10-31T09:10:03;16.17;;;8.57;;
56477;SDS011;42382;53.210;5.772;2022-10-31T09:12:29;13.13;;;9.48;;
56477;SDS011;42382;53.210;5.772;2022-10-31T09:14:55;10.90;;;8.32;;
56477;SDS011;42382;53.210;5.772;2022-10-31T09:17:20;10.35;;;8.38;;
56477;SDS011;42382;53.210;5.772;2022-10-31T09:19:46;10.25;;;7.97;;
56477;SDS011;42382;53.210;5.772;2022-10-31T09:22:11;12.15;;;7.22;;
56477;SDS011;42382;53.210;5.772;2022-10-31T09:24:37;12.80;;;8.63;;
56477;SDS011;42382;53.210;5.772;2022-10-31T09:27:02;8.75;;;6.78;;
56477;SDS011;42382;53.210;5.772;2022-10-31T09:29:28;9.23;;;7.10;;
56477;SDS011;42382;53.210;5.772;2022-10-31T09:31:55;8.95;;;7.13;;
56477;SDS011;42382;53.210;5.772;2022-10-31T09:34:21;13.07;;;6.80;;
56477;SDS011;42382;53.210;5.772;2022-10-31T09:36:47;9.48;;;6.13;;
56477;SDS011;42382;53.210;5.772;2022-10-31T09:39:13;10.23;;;6.13;;
56477;SDS011;42382;53.210;5.772;2022-10-31T09:47:30;9.45;;;7.05;;
56477;SDS011;42382;53.210;5.772;2022-10-31T09:50:22;7.57;;;6.40;;
56477;SDS011;42382;53.210;5.772;2022-10-31T09:56:18;9.77;;;6.65;;
56477;SDS011;42382;53.210;5.772;2022-10-31T09:58:47;10.40;;;7.35;;
56477;SDS011;42382;53.210;5.772;2022-10-31T10:04:20;9.98;;;7.00;;
56477;SDS011;42382;53.210;5.772;2022-10-31T10:06:50;12.48;;;7.80;;
56477;SDS011;42382;53.210;5.772;2022-10-31T10:09:19;11.82;;;7.80;;
56477;SDS011;42382;53.210;5.772;2022-10-31T10:14:33;14.30;;;8.75;;
56477;SDS011;42382;53.210;5.772;2022-10-31T10:17:25;11.02;;;8.48;;
56477;SDS011;42382;53.210;5.772;2022-10-31T10:20:02;9.93;;;8.13;;
56477;SDS011;42382;53.210;5.772;2022-10-31T10:25:26;15.00;;;10.27;;
56477;SDS011;42382;53.210;5.772;2022-10-31T10:28:14;14.40;;;10.02;;
56477;SDS011;42382;53.210;5.772;2022-10-31T10:30:47;17.70;;;9.95;;
56477;SDS011;42382;53.210;5.772;2022-10-31T10:35:58;17.98;;;11.68;;
56477;SDS011;42382;53.210;5.772;2022-10-31T10:38:30;12.30;;;9.20;;
56477;SDS011;42382;53.210;5.772;2022-10-31T10:41:14;13.27;;;9.82;;
56477;SDS011;42382;53.210;5.772;2022-10-31T10:43:43;11.85;;;8.45;;
56477;SDS011;42382;53.210;5.772;2022-10-31T10:49:14;13.32;;;8.27;;
56477;SDS011;42382;53.210;5.772;2022-10-31T10:54:39;11.75;;;8.43;;
56477;SDS011;42382;53.210;5.772;2022-10-31T10:59:38;12.90;;;8.15;;
56477;SDS011;42382;53.210;5.772;2022-10-31T11:02:08;13.63;;;7.95;;
56477;SDS011;42382;53.210;5.772;2022-10-31T11:04:42;12.50;;;7.85;;
56477;SDS011;42382;53.210;5.772;2022-10-31T11:07:10;11.57;;;8.73;;
56477;SDS011;42382;53.210;5.772;2022-10-31T11:09:36;9.95;;;7.45;;
56477;SDS011;42382;53.210;5.772;2022-10-31T11:12:08;13.43;;;7.60;;
56477;SDS011;42382;53.210;5.772;2022-10-31T11:14:47;9.52;;;6.90;;
56477;SDS011;42382;53.210;5.772;2022-10-31T11:17:20;9.13;;;6.63;;
56477;SDS011;42382;53.210;5.772;2022-10-31T11:20:00;9.30;;;7.18;;
56477;SDS011;42382;53.210;5.772;2022-10-31T11:22:30;11.40;;;6.35;;
56477;SDS011;42382;53.210;5.772;2022-10-31T11:24:56;8.50;;;6.18;;
56477;SDS011;42382;53.210;5.772;2022-10-31T11:27:23;8.40;;;6.13;;
56477;SDS011;42382;53.210;5.772;2022-10-31T11:29:50;8.48;;;6.10;;
56477;SDS011;42382;53.210;5.772;2022-10-31T11:32:23;10.27;;;5.75;;
56477;SDS011;42382;53.210;5.772;2022-10-31T11:34:52;8.63;;;5.50;;
56477;SDS011;42382;53.210;5.772;2022-10-31T11:37:25;7.53;;;5.20;;
56477;SDS011;42382;53.210;5.772;2022-10-31T11:39:54;10.85;;;5.63;;
56477;SDS011;42382;53.210;5.772;2022-10-31T11:42:24;10.82;;;6.32;;
56477;SDS011;42382;53.210;5.772;2022-10-31T11:44:52;10.30;;;6.18;;
56477;SDS011;42382;53.210;5.772;2022-10-31T11:47:25;8.07;;;5.90;;
56477;SDS011;42382;53.210;5.772;2022-10-31T11:49:53;13.55;;;7.80;;
56477;SDS011;42382;53.210;5.772;2022-10-31T11:52:22;9.70;;;6.85;;
56477;SDS011;42382;53.210;5.772;2022-10-31T11:54:52;9.65;;;6.15;;
56477;SDS011;42382;53.210;5.772;2022-10-31T11:57:24;11.52;;;7.15;;
56477;SDS011;42382;53.210;5.772;2022-10-31T11:59:57;11.45;;;7.22;;
56477;SDS011;42382;53.210;5.772;2022-10-31T12:02:28;12.30;;;6.55;;
56477;SDS011;42382;53.210;5.772;2022-10-31T12:07:23;8.90;;;6.35;;
56477;SDS011;42382;53.210;5.772;2022-10-31T12:09:49;14.35;;;8.40;;
56477;SDS011;42382;53.210;5.772;2022-10-31T12:20:23;13.90;;;8.07;;
56477;SDS011;42382;53.210;5.772;2022-10-31T12:23:13;17.50;;;8.45;;
56477;SDS011;42382;53.210;5.772;2022-10-31T12:45:07;18.88;;;9.65;;
56477;SDS011;42382;53.210;5.772;2022-10-31T12:47:47;18.02;;;9.82;;
56477;SDS011;42382;53.210;5.772;2022-10-31T12:58:57;17.55;;;8.40;;
56477;SDS011;42382;53.210;5.772;2022-10-31T13:04:24;12.55;;;7.35;;
56477;SDS011;42382;53.210;5.772;2022-10-31T13:07:30;12.63;;;6.82;;
56477;SDS011;42382;53.210;5.772;2022-10-31T13:12:41;15.02;;;7.28;;
56477;SDS011;42382;53.210;5.772;2022-10-31T13:18:17;11.95;;;5.88;;
56477;SDS011;42382;53.210;5.772;2022-10-31T13:20:57;9.80;;;3.75;;
56477;SDS011;42382;53.210;5.772;2022-10-31T13:25:56;6.03;;;3.35;;
56477;SDS011;42382;53.210;5.772;2022-10-31T13:31:05;12.50;;;3.05;;
56477;SDS011;42382;53.210;5.772;2022-10-31T13:33:48;7.15;;;2.60;;
56477;SDS011;42382;53.210;5.772;2022-10-31T13:39:08;5.97;;;2.05;;
56477;SDS011;42382;53.210;5.772;2022-10-31T13:44:35;8.68;;;2.72;;
56477;SDS011;42382;53.210;5.772;2022-10-31T13:47:19;6.28;;;2.20;;
56477;SDS011;42382;53.210;5.772;2022-10-31T13:49:45;6.35;;;1.60;;
56477;SDS011;42382;53.210;5.772;2022-10-31T13:54:45;7.97;;;1.70;;
56477;SDS011;42382;53.210;5.772;2022-10-31T13:57:19;6.93;;;1.90;;
56477;SDS011;42382;53.210;5.772;2022-10-31T14:02:35;7.43;;;2.47;;
56477;SDS011;42382;53.210;5.772;2022-10-31T14:08:00;9.85;;;2.55;;
56477;SDS011;42382;53.210;5.772;2022-10-31T14:10:29;8.70;;;2.17;;
56477;SDS011;42382;53.210;5.772;2022-10-31T14:13:14;7.90;;;1.88;;
56477;SDS011;42382;53.210;5.772;2022-10-31T14:15:54;5.72;;;2.00;;
56477;SDS011;42382;53.210;5.772;2022-10-31T14:18:23;8.45;;;2.67;;
56477;SDS011;42382;53.210;5.772;2022-10-31T14:20:53;5.68;;;2.10;;
56477;SDS011;42382;53.210;5.772;2022-10-31T14:23:35;8.35;;;2.70;;
56477;SDS011;42382;53.210;5.772;2022-10-31T14:26:16;6.13;;;2.28;;
56477;SDS011;42382;53.210;5.772;2022-10-31T14:28:50;8.90;;;2.80;;
56477;SDS011;42382;53.210;5.772;2022-10-31T14:31:31;9.55;;;3.90;;
56477;SDS011;42382;53.210;5.772;2022-10-31T14:42:45;9.23;;;3.60;;
56477;SDS011;42382;53.210;5.772;2022-10-31T14:48:00;8.57;;;3.90;;
56477;SDS011;42382;53.210;5.772;2022-10-31T14:50:48;7.15;;;3.47;;
56477;SDS011;42382;53.210;5.772;2022-10-31T14:53:18;11.70;;;3.55;;
56477;SDS011;42382;53.210;5.772;2022-10-31T14:55:48;6.10;;;2.95;;
56477;SDS011;42382;53.210;5.772;2022-10-31T14:58:20;12.30;;;4.00;;
56477;SDS011;42382;53.210;5.772;2022-10-31T15:00:57;7.50;;;2.95;;
56477;SDS011;42382;53.210;5.772;2022-10-31T15:05:52;10.93;;;3.00;;
56477;SDS011;42382;53.210;5.772;2022-10-31T15:11:25;10.35;;;2.80;;
56477;SDS011;42382;53.210;5.772;2022-10-31T15:13:53;5.75;;;2.40;;
56477;SDS011;42382;53.210;5.772;2022-10-31T15:16:27;6.85;;;2.85;;
56477;SDS011;42382;53.210;5.772;2022-10-31T15:19:03;6.95;;;2.15;;
56477;SDS011;42382;53.210;5.772;2022-10-31T15:21:32;10.90;;;2.88;;
56477;SDS011;42382;53.210;5.772;2022-10-31T15:23:59;8.93;;;3.10;;
56477;SDS011;42382;53.210;5.772;2022-10-31T15:26:31;6.53;;;2.97;;
56477;SDS011;42382;53.210;5.772;2022-10-31T15:29:19;9.95;;;2.63;;
56477;SDS011;42382;53.210;5.772;2022-10-31T15:31:49;7.47;;;2.05;;
56477;SDS011;42382;53.210;5.772;2022-10-31T15:34:38;13.18;;;3.55;;
56477;SDS011;42382;53.210;5.772;2022-10-31T15:37:12;5.68;;;2.22;;
56477;SDS011;42382;53.210;5.772;2022-10-31T15:39:42;10.50;;;3.15;;
56477;SDS011;42382;53.210;5.772;2022-10-31T15:45:01;6.60;;;2.72;;
56477;SDS011;42382;53.210;5.772;2022-10-31T15:47:28;6.15;;;2.22;;
56477;SDS011;42382;53.210;5.772;2022-10-31T15:49:56;9.88;;;2.10;;
56477;SDS011;42382;53.210;5.772;2022-10-31T15:52:31;10.90;;;2.10;;
56477;SDS011;42382;53.210;5.772;2022-10-31T15:55:00;7.18;;;1.92;;
56477;SDS011;42382;53.210;5.772;2022-10-31T15:57:29;7.35;;;2.83;;
56477;SDS011;42382;53.210;5.772;2022-10-31T15:59:55;5.45;;;2.00;;
56477;SDS011;42382;53.210;5.772;2022-10-31T16:02:22;5.85;;;2.25;;
56477;SDS011;42382;53.210;5.772;2022-10-31T16:04:52;8.20;;;1.60;;
56477;SDS011;42382;53.210;5.772;2022-10-31T16:07:20;5.88;;;1.65;;
56477;SDS011;42382;53.210;5.772;2022-10-31T16:12:16;5.00;;;1.40;;
56477;SDS011;42382;53.210;5.772;2022-10-31T16:14:41;8.88;;;1.73;;
56477;SDS011;42382;53.210;5.772;2022-10-31T16:17:11;4.28;;;1.15;;
56477;SDS011;42382;53.210;5.772;2022-10-31T16:19:47;8.32;;;1.65;;
56477;SDS011;42382;53.210;5.772;2022-10-31T16:27:17;5.53;;;1.85;;
56477;SDS011;42382;53.210;5.772;2022-10-31T16:29:53;6.35;;;1.98;;
56477;SDS011;42382;53.210;5.772;2022-10-31T16:32:34;8.18;;;1.98;;
56477;SDS011;42382;53.210;5.772;2022-10-31T16:35:17;6.85;;;2.63;;
56477;SDS011;42382;53.210;5.772;2022-10-31T16:37:48;7.68;;;2.53;;
56477;SDS011;42382;53.210;5.772;2022-10-31T16:40:14;12.43;;;2.85;;
56477;SDS011;42382;53.210;5.772;2022-10-31T16:42:40;7.65;;;2.97;;
56477;SDS011;42382;53.210;5.772;2022-10-31T16:45:07;8.35;;;3.17;;
56477;SDS011;42382;53.210;5.772;2022-10-31T16:47:38;8.77;;;3.45;;
56477;SDS011;42382;53.210;5.772;2022-10-31T16:50:05;10.35;;;3.78;;
56477;SDS011;42382;53.210;5.772;2022-10-31T16:52:36;9.90;;;4.15;;
56477;SDS011;42382;53.210;5.772;2022-10-31T16:55:02;9.73;;;4.50;;
56477;SDS011;42382;53.210;5.772;2022-10-31T16:57:31;12.77;;;4.13;;
56477;SDS011;42382;53.210;5.772;2022-10-31T16:59:56;13.18;;;4.57;;
56477;SDS011;42382;53.210;5.772;2022-10-31T17:02:22;10.07;;;4.95;;
56477;SDS011;42382;53.210;5.772;2022-10-31T17:04:48;11.40;;;4.55;;
56477;SDS011;42382;53.210;5.772;2022-10-31T17:07:14;15.57;;;4.57;;
56477;SDS011;42382;53.210;5.772;2022-10-31T17:09:39;9.73;;;4.80;;